Flight Track Log - Related Links

Times and Time Zones

All times are in EDT time to prevent confusion due to time zone crossing. See the AAL2345 flight status page for this flight to view local times or setup timezone preferences in your user account.

Time Position Orientation Groundspeed Altitude Reporting Facility
EDT Latitude Longitude Course Direction KTS MPH feet Rate Location/Type
Fri 07:02:51 PM 41.9333 -87.9333 236° Southwest 179 206 2,300  Level Chicago TRACON
Fri 07:03:51 PM 41.9333 -88.0167 270° West 215 247 4,000 2,014 Climbing Chicago TRACON
Fri 07:04:00 PM 41.9000 -88.1869 270° West  Level FlightAware Approximate
Fri 07:05:00 PM 41.8763 -88.3342 242° Southwest  Level FlightAware Approximate
Fri 07:05:17 PM 41.9283 -88.1286 267° West 245 282 7,200  Level Chicago Center
Fri 07:06:00 PM 41.8350 -88.4752 255° West  Level FlightAware Approximate
Fri 07:06:19 PM 41.9136 -88.2431 260° West 262 302 10,100  Level Chicago Center
Fri 07:07:00 PM 41.8029 -88.6214 254° West  Level FlightAware Approximate
Fri 07:07:21 PM 41.8872 -88.3467 251° West 292 336 11,500  Level Chicago Center
Fri 07:08:00 PM 41.7164 -88.7170 236° Southwest  Level Estimated
Fri 07:08:23 PM 41.8600 -88.4664 253° West 325 374 13,400  Level Chicago Center
Fri 07:09:25 PM 41.8294 -88.5931 252° West 354 407 15,700 2,323 Climbing Chicago Center
Fri 07:10:27 PM 41.7922 -88.7472 252° West 365 420 18,200 2,032 Climbing Chicago Center
Fri 07:11:29 PM 41.7603 -88.8811 252° West 378 435 19,900 1,597 Climbing Chicago Center
Fri 07:12:31 PM 41.7272 -89.0192 252° West 390 449 21,500 1,500 Climbing Chicago Center
Fri 07:13:33 PM 41.6933 -89.1597 252° West 398 458 23,000 1,392 Climbing Chicago Center
Fri 07:14:36 PM 41.6578 -89.3050 252° West 412 474 24,400 1,536 Climbing Chicago Center
Fri 07:15:38 PM 41.6147 -89.4811 252° West 420 483 26,200 1,355 Climbing Chicago Center
Fri 07:16:40 PM 41.5833 -89.6086 252° West 420 483 27,200 1,258 Climbing Chicago Center
Fri 07:17:42 PM 41.5389 -89.7853 251° West 420 483 28,800 1,306 Climbing Chicago Center
Fri 07:18:44 PM 41.5019 -89.9333 252° West 420 483 29,900 1,016 Climbing Chicago Center
Fri 07:19:46 PM 41.4650 -90.0803 251° West 421 484 30,900 919 Climbing Chicago Center
Fri 07:20:48 PM 41.4275 -90.2272 251° West 421 484 31,800 532 Climbing Chicago Center
Fri 07:21:50 PM 41.3906 -90.3739 251° West 421 484 32,000 97 Climbing Chicago Center
Fri 07:22:52 PM 41.3536 -90.5192 251° West 418 481 32,000  Level Chicago Center
Fri 07:23:54 PM 41.2933 -90.6889 245° Southwest 425 489 32,000  Level Chicago Center
Fri 07:24:56 PM 41.2217 -90.8092 232° Southwest 417 480 32,000  Level Chicago Center
Fri 07:25:58 PM 41.1475 -90.9322 231° Southwest 424 488 32,000  Level Chicago Center
Fri 07:27:00 PM 41.0756 -91.0544 232° Southwest 423 487 32,000  Level Chicago Center
Fri 07:28:02 PM 41.0025 -91.1781 232° Southwest 426 490 32,000  Level Chicago Center
Fri 07:29:04 PM 40.9136 -91.3264 232° Southwest 428 493 32,000  Level Chicago Center
Fri 07:30:06 PM 40.8381 -91.4506 231° Southwest 430 495 32,000  Level Chicago Center
Fri 07:31:08 PM 40.7625 -91.5722 231° Southwest 432 497 32,000  Level Chicago Center
Fri 07:32:10 PM 40.6892 -91.6947 232° Southwest 430 495 32,000  Level Chicago Center
Fri 07:33:12 PM 40.6144 -91.8164 231° Southwest 430 495 32,000  Level Chicago Center
Fri 07:34:14 PM 40.5400 -91.9406 232° Southwest 435 501 32,000  Level Chicago Center
Fri 07:35:16 PM 40.4489 -92.0875 231° Southwest 435 501 32,000  Level Chicago Center
Fri 07:36:10 PM 40.3878 -92.1847 230° Southwest 434 499 32,000  Level Kansas City Center
Fri 07:37:13 PM 40.3111 -92.3086 231° Southwest 437 503 32,000  Level Kansas City Center
Fri 07:38:14 PM 40.2294 -92.4350 230° Southwest 438 504 32,000  Level Kansas City Center
Fri 07:39:15 PM 40.1422 -92.5761 231° Southwest 443 510 32,000  Level Kansas City Center
Fri 07:40:19 PM 40.0594 -92.6700 221° Southwest 443 510 32,000  Level Kansas City Center
Fri 07:41:19 PM 39.9433 -92.7908 219° Southwest 448 516 32,000  Level Kansas City Center
Fri 07:42:23 PM 39.8481 -92.8928 219° Southwest 449 517 32,000  Level Kansas City Center
Fri 07:43:23 PM 39.7519 -92.9953 219° Southwest 451 519 32,000  Level Kansas City Center
Fri 07:44:24 PM 39.6533 -93.0931 217° Southwest 450 518 32,000  Level Kansas City Center
Fri 07:45:28 PM 39.5558 -93.1922 218° Southwest 449 517 32,000  Level Kansas City Center
Fri 07:46:29 PM 39.4397 -93.3111 218° Southwest 448 516 32,000  Level Kansas City Center
Fri 07:47:33 PM 39.3436 -93.4108 219° Southwest 447 514 32,000  Level Kansas City Center
Fri 07:48:33 PM 39.2442 -93.5161 219° Southwest 443 510 32,000  Level Kansas City Center
Fri 07:49:37 PM 39.1508 -93.6106 218° Southwest 443 510 32,000  Level Kansas City Center
Fri 07:50:38 PM 39.0431 -93.7203 218° Southwest 441 507 32,000  Level Kansas City Center
Fri 07:51:38 PM 38.9506 -93.8153 219° Southwest 443 510 32,000  Level Kansas City Center
Fri 07:52:43 PM 38.8425 -93.9225 218° Southwest 439 505 32,000  Level Kansas City Center
Fri 07:53:44 PM 38.7508 -94.0167 219° Southwest 440 506 32,000 149 Level Kansas City Center
Fri 07:54:44 PM 38.6442 -94.1233 218° Southwest 435 501 32,300 432 Climbing Kansas City Center
Fri 07:55:49 PM 38.5522 -94.2128 217° Southwest 433 498 32,900 624 Climbing Kansas City Center
Fri 07:56:49 PM 38.4614 -94.3008 217° Southwest 429 494 33,600 545 Climbing Kansas City Center
Fri 07:57:50 PM 38.3553 -94.4064 218° Southwest 430 495 34,000 192 Climbing Kansas City Center
Fri 07:58:54 PM 38.2631 -94.4919 216° Southwest 428 493 34,000  Level Kansas City Center
Fri 07:59:56 PM 38.1417 -94.5714 207° Southwest 436 502 34,000  Level Kansas City Center
Fri 08:00:57 PM 38.0389 -94.6383 207° Southwest 432 497 34,000  Level Kansas City Center
Fri 08:01:58 PM 37.9197 -94.7131 206° Southwest 429 494 34,000  Level Kansas City Center
Fri 08:02:59 PM 37.8164 -94.7781 206° Southwest 430 495 34,000  Level Kansas City Center
Fri 08:04:04 PM 37.7119 -94.8442 207° Southwest 435 501 34,000  Level Kansas City Center
Fri 08:05:04 PM 37.6019 -94.9139 207° Southwest 434 499 34,000  Level Kansas City Center
Fri 08:06:05 PM 37.4714 -94.9969 207° Southwest 436 502 34,000  Level Kansas City Center
Fri 08:07:08 PM 37.3628 -95.0669 207° Southwest 438 504 34,000  Level Kansas City Center
Fri 08:08:09 PM 37.2522 -95.1353 206° Southwest 442 509 34,000  Level Kansas City Center
Fri 08:09:11 PM 37.1444 -95.2092 209° Southwest 440 506 34,000  Level Kansas City Center
Fri 08:10:14 PM 37.0411 -95.2928 213° Southwest 441 507 34,000  Level Kansas City Center
Fri 08:11:15 PM 36.9364 -95.3756 212° Southwest 444 511 34,000  Level Kansas City Center
Fri 08:12:16 PM 36.8336 -95.4586 213° Southwest 442 509 34,000  Level Kansas City Center
Fri 08:13:20 PM 36.7114 -95.5583 213° Southwest 441 507 34,000  Level Kansas City Center
Fri 08:14:20 PM 36.6094 -95.6433 214° Southwest 443 510 34,000  Level Kansas City Center
Fri 08:15:23 PM 36.4936 -95.7139 206° Southwest 450 518 34,000  Level Kansas City Center
Fri 08:16:25 PM 36.3828 -95.7694 202° Southwest 452 520 34,000  Level Kansas City Center
Fri 08:17:25 PM 36.2675 -95.8206 200° South 448 516 34,000  Level Kansas City Center
Fri 08:18:29 PM 36.1208 -95.8519 190° South 450 518 34,000  Level Kansas City Center
Fri 08:19:30 PM 35.9975 -95.8656 185° South 448 516 34,000 -49 Level Kansas City Center
Fri 08:20:31 PM 35.8744 -95.8483 174° South 447 514 33,900 -774 Descending Kansas City Center
Fri 08:21:34 PM 35.7536 -95.8242 171° South 442 509 32,400 -1,355 Descending Kansas City Center
Fri 08:22:35 PM 35.6339 -95.7850 165° South 443 510 31,100 -857 Descending Kansas City Center
Fri 08:23:12 PM 35.5453 -95.7400 158° South 448 516 31,000 -62 Descending Fort Worth Center
Fri 08:24:12 PM 35.4256 -95.6864 160° South 448 516 31,000  Level Fort Worth Center
Fri 08:25:12 PM 35.3103 -95.6328 159° South 448 516 31,000  Level Fort Worth Center
Fri 08:26:12 PM 35.1906 -95.5769 159° South 448 516 31,000  Level Fort Worth Center
Fri 08:27:12 PM 35.0692 -95.5414 167° South 448 516 31,000  Level Fort Worth Center
Fri 08:28:12 PM 34.9456 -95.5111 169° South 448 516 31,000 -350 Level Fort Worth Center
Fri 08:29:12 PM 34.8200 -95.4811 169° South 453 521 30,300 -800 Descending Fort Worth Center
Fri 08:30:12 PM 34.6969 -95.4939 185° South 440 506 29,400 -1,000 Descending Fort Worth Center
Fri 08:31:12 PM 34.6103 -95.5539 210° Southwest 430 495 28,300 -1,600 Descending Fort Worth Center
Fri 08:32:12 PM 34.4842 -95.6425 210° Southwest 437 503 26,200 -2,050 Descending Fort Worth Center
Fri 08:33:12 PM 34.3789 -95.7200 211° Southwest 437 503 24,200 -1,950 Descending Fort Worth Center
Fri 08:34:12 PM 34.2756 -95.7925 210° Southwest 438 504 22,300 -1,950 Descending Fort Worth Center
Fri 08:35:12 PM 34.1764 -95.8647 211° Southwest 433 498 20,300 -1,800 Descending Fort Worth Center
Fri 08:36:12 PM 34.0978 -95.9186 210° Southwest 421 484 18,700 -1,750 Descending Fort Worth Center
Fri 08:37:12 PM 34.0003 -95.9856 210° Southwest 403 464 16,800 -1,835 Descending Fort Worth Center
Fri 08:38:13 PM 33.9072 -96.0494 210° Southwest 391 450 15,000 -1,550 Descending Fort Worth Center
Fri 08:39:12 PM 33.8181 -96.1133 211° Southwest 386 444 13,700 -1,210 Descending Fort Worth Center
Fri 08:40:12 PM 33.7311 -96.1722 209° Southwest 379 436 12,600 -1,050 Descending Fort Worth Center
Fri 08:41:12 PM 33.6461 -96.2283 209° Southwest 368 423 11,600 -750 Descending Fort Worth Center
Fri 08:42:12 PM 33.5611 -96.2892 211° Southwest 357 411 11,100 -300 Descending Fort Worth Center
Fri 08:43:12 PM 33.4803 -96.3475 211° Southwest 352 405 11,000 -350 Descending Fort Worth Center
Fri 08:44:12 PM 33.4053 -96.3958 208° Southwest 337 388 10,400 -1,041 Descending Fort Worth Center
Fri 08:45:13 PM 33.3333 -96.4667 219° Southwest 302 348 8,900 -1,463 Descending Dallas / Fort Worth TRACON
Fri 08:46:15 PM 33.3167 -96.5667 259° West 289 333 7,400 -1,412 Descending Dallas / Fort Worth TRACON
Fri 08:47:12 PM 33.2819 -96.6431 241° Southwest 296 341 6,100 -1,231 Descending Fort Worth Center
Fri 08:48:12 PM 33.2531 -96.7278 248° West 290 334 5,000 -550 Descending Fort Worth Center
Fri 08:49:12 PM 33.2181 -96.8100 243° Southwest 280 322 5,000  Level Fort Worth Center
Fri 08:50:13 PM 33.1578 -96.8800 224° Southwest 280 322 5,000 -500 Level Fort Worth Center
Fri 08:51:12 PM 33.1142 -96.9347 226° Southwest 270 311 4,000 -1,017 Descending Fort Worth Center

Login

Don't have an account? Register now (free) for customized features, flight alerts, and more!